Search for airport 
image banner adimage banner adimage banner ad
image banner ad

2NV2 - Gibb Ranch

Located in Sparks, United States

ICAO - 2NV2, IATA -

Data provided by Airmate  

General information

Coordinates: N39°50'5" W119°40'29"
Elevation is 4242 feet MSL.
Magnetic variation is 16° East
View others Airports in Nevada

Operational data

Special qualification required
Current time UTC:
Current local time:
Weather at : KRTS - Reno/Stead ( 25 km )
METAR: KRTS 131115Z AUTO 36004KT 10SM CLR 11/02 A3005 RMK AO2
View NOTAMs / SUP AIP / TFR affecting this airport [VIEW]
Communications frequencies: [VIEW]

Runways:

RWY identifierQFULength (ft)Width (ft)SurfaceLDA (ft)
16400040EARTH
34400040EARTH

Airport contact information

Address: Sparks United States

Satellite view of 2NV2